createdAt,value
2022-08-17T00:00:43.569Z,99784.41
2022-08-17T00:03:13.584Z,99781.45
2022-08-17T00:05:45.312Z,99784.39
2022-08-17T00:08:16.300Z,99784.42
2022-08-17T00:10:46.839Z,99783.59
2022-08-17T00:13:18.515Z,99780.64
2022-08-17T00:15:47.558Z,99780.04
2022-08-17T00:19:00.987Z,99779.23
2022-08-17T00:21:10.573Z,99779.53
2022-08-17T00:23:49.108Z,99776.54
2022-08-17T00:26:34.540Z,99781.39
2022-08-17T00:29:07.881Z,99784.80
2022-08-17T00:31:36.935Z,99779.36
2022-08-17T00:34:08.655Z,99781.39
2022-08-17T00:36:37.203Z,99779.27
2022-08-17T00:39:06.814Z,99777.47
2022-08-17T00:41:35.434Z,99781.86
2022-08-17T00:44:05.677Z,99787.39
2022-08-17T00:46:37.620Z,99791.95
2022-08-17T00:49:07.571Z,99784.70
2022-08-17T00:51:42.580Z,99785.88
2022-08-17T00:54:14.343Z,99784.27
2022-08-17T00:56:47.511Z,99781.20
2022-08-17T00:59:21.003Z,99775.47
2022-08-17T01:01:51.950Z,99774.38
2022-08-17T01:04:22.301Z,99774.05
2022-08-17T01:06:52.520Z,99776.35
2022-08-17T01:09:21.495Z,99775.94
2022-08-17T01:11:51.645Z,99778.84
2022-08-17T01:14:21.070Z,99779.52
2022-08-17T01:16:53.415Z,99781.20
2022-08-17T01:19:25.091Z,99781.67
2022-08-17T01:22:00.641Z,99784.54
2022-08-17T01:24:29.133Z,99783.86
2022-08-17T01:26:57.790Z,99788.63
2022-08-17T01:29:30.288Z,99784.14
2022-08-17T01:32:03.560Z,99785.30
2022-08-17T01:34:42.892Z,99788.34
2022-08-17T01:37:15.025Z,99789.75
2022-08-17T01:39:47.723Z,99789.25
2022-08-17T01:42:23.631Z,99789.94
2022-08-17T01:44:56.380Z,99787.54
2022-08-17T01:47:24.985Z,99793.08
2022-08-17T01:49:53.932Z,99792.14
2022-08-17T01:52:23.287Z,99794.58
2022-08-17T01:54:52.792Z,99794.67
2022-08-17T01:57:21.192Z,99796.88
2022-08-17T01:59:49.697Z,99798.98
2022-08-17T02:02:30.631Z,99799.06
2022-08-17T02:05:00.865Z,99793.39
2022-08-17T02:07:29.403Z,99792.31
2022-08-17T02:09:58.072Z,99789.83
2022-08-17T02:12:38.557Z,99793.56
2022-08-17T02:15:11.823Z,99792.71
2022-08-17T02:17:40.490Z,99791.54
2022-08-17T02:20:11.024Z,99792.16
2022-08-17T02:22:42.793Z,99795.77
2022-08-17T02:25:15.643Z,99798.70
2022-08-17T02:27:44.118Z,99803.14
2022-08-17T02:31:00.626Z,99800.46
2022-08-17T02:33:06.380Z,99799.96
2022-08-17T02:35:38.584Z,99798.13
2022-08-17T02:38:08.163Z,99795.58
2022-08-17T02:40:39.970Z,99796.89
2022-08-17T02:43:09.124Z,99795.95
2022-08-17T02:45:37.616Z,99796.90
2022-08-17T02:48:06.319Z,99801.70
2022-08-17T02:50:34.768Z,99801.50
2022-08-17T02:53:04.761Z,99803.48
2022-08-17T02:55:36.402Z,99804.13
2022-08-17T02:58:05.834Z,99799.86
2022-08-17T03:00:37.430Z,99804.61
2022-08-17T03:03:07.213Z,99802.14
2022-08-17T03:05:38.108Z,99803.87
2022-08-17T03:08:07.862Z,99805.20
2022-08-17T03:10:41.756Z,99806.88
2022-08-17T03:13:10.186Z,99803.13
2022-08-17T03:15:40.676Z,99807.41
2022-08-17T03:18:19.123Z,99810.48
2022-08-17T03:20:54.464Z,99810.17
2022-08-17T03:23:24.210Z,99813.83
2022-08-17T03:25:54.559Z,99811.95
2022-08-17T03:28:24.117Z,99814.23
2022-08-17T03:30:52.734Z,99816.05
2022-08-17T03:33:21.678Z,99815.82
2022-08-17T03:35:50.439Z,99815.21
2022-08-17T03:38:19.391Z,99815.67
2022-08-17T03:40:58.156Z,99821.91
2022-08-17T03:43:30.317Z,99826.92
2022-08-17T03:46:28.636Z,99829.90
2022-08-17T03:49:22.958Z,99833.13
2022-08-17T03:52:10.199Z,99835.16
2022-08-17T03:54:57.391Z,99838.46
2022-08-17T03:57:26.752Z,99837.45
2022-08-17T03:59:55.966Z,99840.39
2022-08-17T04:02:28.467Z,99842.95
2022-08-17T04:04:57.594Z,99842.87
2022-08-17T04:07:29.069Z,99846.30
2022-08-17T04:09:58.806Z,99848.11
2022-08-17T04:12:30.019Z,99853.06
2022-08-17T04:14:58.774Z,99848.57
2022-08-17T04:17:29.127Z,99849.42
2022-08-17T04:19:58.023Z,99851.65
2022-08-17T04:22:33.409Z,99854.78
2022-08-17T04:25:06.849Z,99852.19
2022-08-17T04:27:35.262Z,99852.95
2022-08-17T04:30:06.340Z,99855.66
2022-08-17T04:33:04.057Z,99851.47
2022-08-17T04:35:38.373Z,99848.67
2022-08-17T04:38:08.142Z,99850.09
2022-08-17T04:40:54.991Z,99847.02
2022-08-17T04:43:26.044Z,99845.45
2022-08-17T04:45:57.228Z,99844.59
2022-08-17T04:48:36.522Z,99844.94
2022-08-17T04:51:10.530Z,99845.14
2022-08-17T04:53:40.773Z,99853.63
2022-08-17T04:56:16.240Z,99847.97
2022-08-17T04:58:47.504Z,99843.44
2022-08-17T05:01:16.685Z,99845.86
2022-08-17T05:03:53.819Z,99848.25
2022-08-17T05:06:23.532Z,99847.14
2022-08-17T05:08:53.035Z,99845.95
2022-08-17T05:11:25.465Z,99848.21
2022-08-17T05:13:55.060Z,99852.20
2022-08-17T05:16:25.186Z,99852.17
2022-08-17T05:18:58.684Z,99855.36
2022-08-17T05:21:28.303Z,99857.02
2022-08-17T05:23:58.266Z,99862.18
2022-08-17T05:26:28.812Z,99862.36
2022-08-17T05:29:02.450Z,99861.14
2022-08-17T05:31:32.796Z,99862.73
2022-08-17T05:34:01.607Z,99862.96
2022-08-17T05:36:37.844Z,99861.21
2022-08-17T05:39:17.117Z,99860.34
2022-08-17T05:41:49.306Z,99862.84
2022-08-17T05:44:20.898Z,99865.66
2022-08-17T05:46:53.839Z,99864.85
2022-08-17T05:49:29.388Z,99869.65
2022-08-17T05:52:23.913Z,99872.52
2022-08-17T05:55:05.009Z,99869.41
2022-08-17T05:57:53.367Z,99874.59
2022-08-17T06:00:30.763Z,99873.17
2022-08-17T06:03:16.384Z,99871.80
2022-08-17T06:05:58.900Z,99877.08
2022-08-17T06:08:41.958Z,99873.08
2022-08-17T06:11:37.330Z,99873.06
2022-08-17T06:14:17.890Z,99877.73
2022-08-17T06:16:53.815Z,99876.51
2022-08-17T06:19:29.942Z,99873.33
2022-08-17T06:22:02.995Z,99877.48
2022-08-17T06:24:56.458Z,99879.46
2022-08-17T06:27:35.844Z,99882.11
2022-08-17T06:30:13.080Z,99885.40
2022-08-17T06:32:44.659Z,99890.00
2022-08-17T06:35:21.571Z,99892.29
2022-08-17T06:38:02.141Z,99891.46
2022-08-17T06:40:54.834Z,99891.63
2022-08-17T06:43:58.008Z,99892.82
2022-08-17T06:47:12.456Z,99885.30
2022-08-17T06:50:21.786Z,99887.03
2022-08-17T06:53:32.251Z,99886.20
2022-08-17T06:56:53.980Z,99883.99
2022-08-17T06:59:55.270Z,99889.41
2022-08-17T07:03:14.260Z,99885.90
2022-08-17T07:06:00.407Z,99890.45
2022-08-17T07:09:00.083Z,99884.35
2022-08-17T07:11:52.966Z,99887.35
2022-08-17T07:14:58.773Z,99896.42
2022-08-17T07:17:47.669Z,99901.19
2022-08-17T07:20:28.425Z,99906.59
2022-08-17T07:23:17.902Z,99907.95
2022-08-17T07:26:26.817Z,99899.09
2022-08-17T07:29:28.751Z,99900.94
2022-08-17T07:32:20.023Z,99903.23
2022-08-17T07:35:20.566Z,99905.59
2022-08-17T07:38:25.583Z,99905.23
2022-08-17T07:41:23.657Z,99906.25
2022-08-17T07:44:17.691Z,99906.14
2022-08-17T07:47:23.574Z,99899.29
2022-08-17T07:50:02.267Z,99899.88
2022-08-17T07:53:03.677Z,99894.19
2022-08-17T07:55:42.838Z,99894.81
2022-08-17T07:58:52.672Z,99892.50
2022-08-17T08:01:41.033Z,99895.62
2022-08-17T08:08:33.867Z,99891.25
2022-08-17T08:11:36.995Z,99892.15
2022-08-17T08:14:34.580Z,99890.79
2022-08-17T08:17:35.746Z,99895.11
2022-08-17T08:20:51.745Z,99889.44
2022-08-17T08:23:49.233Z,99894.93
2022-08-17T08:26:25.915Z,99901.03
2022-08-17T08:29:13.053Z,99904.90
2022-08-17T08:31:58.583Z,99905.90
2022-08-17T08:35:00.495Z,99901.73
2022-08-17T08:37:42.719Z,99903.92
2022-08-17T08:40:25.622Z,99902.23
2022-08-17T08:43:03.100Z,99909.16
2022-08-17T08:45:38.235Z,99905.27
2022-08-17T08:48:45.949Z,99906.22
2022-08-17T08:51:16.803Z,99904.64
2022-08-17T08:53:57.153Z,99904.17
2022-08-17T08:57:11.952Z,99907.23
2022-08-17T08:59:54.123Z,99897.70
2022-08-17T09:02:45.415Z,99897.61
2022-08-17T09:05:25.672Z,99897.55
2022-08-17T09:08:03.478Z,99900.97
2022-08-17T09:10:44.794Z,99897.59
2022-08-17T09:13:22.376Z,99901.73
2022-08-17T09:15:58.638Z,99898.66
2022-08-17T09:19:02.159Z,99896.96
2022-08-17T09:21:28.680Z,99902.73
2022-08-17T09:24:12.223Z,99899.61
2022-08-17T09:26:49.166Z,99903.71
2022-08-17T09:29:23.858Z,99902.45
2022-08-17T09:31:56.601Z,99904.23
2022-08-17T09:34:33.206Z,99906.15
2022-08-17T09:37:18.274Z,99907.86
2022-08-17T09:39:48.822Z,99910.48
2022-08-17T09:42:23.777Z,99913.16
2022-08-17T09:45:03.008Z,99909.73
2022-08-17T09:47:36.286Z,99911.84
2022-08-17T09:50:14.407Z,99911.83
2022-08-17T09:52:44.180Z,99910.13
2022-08-17T09:55:12.945Z,99906.69
2022-08-17T09:58:04.385Z,99906.67
2022-08-17T10:00:37.052Z,99912.30
2022-08-17T10:03:27.947Z,99918.91
2022-08-17T10:06:02.515Z,99916.66
2022-08-17T10:08:44.566Z,99915.10
2022-08-17T10:11:33.844Z,99913.30
2022-08-17T10:14:36.950Z,99915.38
2022-08-17T10:17:07.930Z,99908.67
2022-08-17T10:19:40.326Z,99912.57
2022-08-17T10:22:41.860Z,99915.01
2022-08-17T10:25:53.547Z,99913.42
2022-08-17T10:28:30.080Z,99918.86
2022-08-17T10:31:33.299Z,99924.67
2022-08-17T10:34:05.222Z,99926.65
2022-08-17T10:36:45.528Z,99923.64
2022-08-17T10:39:27.682Z,99922.48
2022-08-17T10:42:00.529Z,99918.78
2022-08-17T10:44:44.905Z,99914.58
2022-08-17T10:47:15.194Z,99913.34
2022-08-17T10:49:49.368Z,99912.15
2022-08-17T10:52:49.428Z,99909.54
2022-08-17T10:55:20.179Z,99912.63
2022-08-17T10:57:50.797Z,99909.79
2022-08-17T11:00:53.359Z,99908.92
2022-08-17T11:03:24.970Z,99906.42
2022-08-17T11:06:05.863Z,99914.32
2022-08-17T11:08:57.239Z,99912.97
2022-08-17T11:12:07.306Z,99906.91
2022-08-17T11:14:49.607Z,99906.66
2022-08-17T11:17:36.511Z,99904.80
2022-08-17T11:20:34.233Z,99903.42
2022-08-17T11:23:40.122Z,99905.75
2022-08-17T11:26:25.418Z,99909.59
2022-08-17T11:29:00.187Z,99911.51
2022-08-17T11:31:38.295Z,99911.14
2022-08-17T11:34:17.985Z,99907.79
2022-08-17T11:37:20.716Z,99909.11
2022-08-17T11:40:20.300Z,99909.48
2022-08-17T11:43:25.586Z,99908.91
2022-08-17T11:46:14.047Z,99905.10
2022-08-17T11:49:16.470Z,99902.27
2022-08-17T11:52:14.744Z,99905.29
2022-08-17T11:54:46.575Z,99901.70
2022-08-17T11:58:05.853Z,99898.73
2022-08-17T12:00:59.419Z,99898.13
2022-08-17T12:03:55.359Z,99902.27
2022-08-17T12:06:33.198Z,99897.36
2022-08-17T12:09:10.847Z,99898.60
2022-08-17T12:11:56.324Z,99898.48
2022-08-17T12:15:08.380Z,99896.46
2022-08-17T12:17:40.717Z,99895.13
2022-08-17T12:20:21.625Z,99898.50
2022-08-17T12:23:00.815Z,99897.82
2022-08-17T12:25:33.935Z,99898.52
2022-08-17T12:28:06.458Z,99896.36
2022-08-17T12:30:37.906Z,99900.48
2022-08-17T12:33:13.516Z,99902.03
2022-08-17T12:36:02.273Z,99902.30
2022-08-17T12:38:33.967Z,99901.39
2022-08-17T12:41:25.106Z,99900.44
2022-08-17T12:44:00.878Z,99899.24
2022-08-17T12:46:33.076Z,99900.05
2022-08-17T12:49:19.054Z,99903.91
2022-08-17T12:51:48.312Z,99900.69
2022-08-17T12:54:31.353Z,99904.38
2022-08-17T12:57:05.566Z,99908.84
2022-08-17T12:59:33.857Z,99905.67
2022-08-17T13:02:02.782Z,99903.02
2022-08-17T13:04:32.295Z,99906.81
2022-08-17T13:07:00.684Z,99901.70
2022-08-17T13:09:35.257Z,99901.56
2022-08-17T13:12:08.833Z,99903.58
2022-08-17T13:14:37.883Z,99899.86
2022-08-17T13:17:13.142Z,99899.61
2022-08-17T13:19:51.366Z,99895.38
2022-08-17T13:22:23.996Z,99895.06
2022-08-17T13:24:54.842Z,99890.53
2022-08-17T13:27:25.846Z,99888.48
2022-08-17T13:29:58.192Z,99881.57
2022-08-17T13:32:43.739Z,99873.96
2022-08-17T13:35:49.986Z,99875.76
2022-08-17T13:38:39.875Z,99878.39
2022-08-17T13:41:08.248Z,99880.02
2022-08-17T13:43:49.947Z,99883.24
2022-08-17T13:46:26.124Z,99881.20
2022-08-17T13:49:04.365Z,99888.70
2022-08-17T13:51:36.103Z,99888.63
2022-08-17T13:54:18.588Z,99890.88
2022-08-17T13:57:01.953Z,99896.04
2022-08-17T13:59:54.395Z,99897.77
2022-08-17T14:02:26.062Z,99897.74
2022-08-17T14:05:00.045Z,99900.60
2022-08-17T14:07:33.169Z,99893.94
2022-08-17T14:10:05.302Z,99894.78
2022-08-17T14:12:37.323Z,99893.90
2022-08-17T14:15:08.609Z,99894.58
2022-08-17T14:17:39.017Z,99890.42
2022-08-17T14:20:11.901Z,99889.45
2022-08-17T14:22:45.645Z,99892.80
2022-08-17T14:25:16.961Z,99889.46
2022-08-17T14:27:52.829Z,99893.73
2022-08-17T14:30:29.814Z,99890.29
2022-08-17T14:33:01.513Z,99889.10
2022-08-17T14:35:30.522Z,99892.38
2022-08-17T14:37:59.031Z,99887.34
2022-08-17T14:40:27.870Z,99887.23
2022-08-17T14:42:57.584Z,99886.08
2022-08-17T14:45:30.023Z,99885.70
2022-08-17T14:48:04.162Z,99883.73
2022-08-17T14:50:35.271Z,99884.35
2022-08-17T14:53:06.614Z,99888.52
2022-08-17T14:55:36.270Z,99881.59
2022-08-17T14:58:05.298Z,99876.84
2022-08-17T15:00:34.345Z,99879.08
2022-08-17T15:03:03.535Z,99878.02
2022-08-17T15:05:35.856Z,99878.95
2022-08-17T15:08:08.362Z,99876.17
2022-08-17T15:10:37.134Z,99884.23
2022-08-17T15:13:10.371Z,99884.27
2022-08-17T15:15:39.165Z,99880.44
2022-08-17T15:18:07.721Z,99882.95
2022-08-17T15:20:36.489Z,99883.46
2022-08-17T15:23:06.396Z,99882.88
2022-08-17T15:25:35.532Z,99881.75
2022-08-17T15:28:06.796Z,99878.00
2022-08-17T15:30:37.867Z,99880.29
2022-08-17T15:33:06.232Z,99882.38
2022-08-17T15:35:35.488Z,99882.06
2022-08-17T15:38:11.697Z,99884.77
2022-08-17T15:40:44.289Z,99880.52
2022-08-17T15:43:15.862Z,99879.70
2022-08-17T15:45:44.971Z,99875.26
2022-08-17T15:48:40.990Z,99873.28
2022-08-17T15:51:16.902Z,99872.37
2022-08-17T15:53:47.385Z,99873.40
2022-08-17T15:56:16.962Z,99877.73
2022-08-17T15:58:46.895Z,99878.38
2022-08-17T16:02:15.425Z,99879.95
2022-08-17T16:04:30.314Z,99879.94
2022-08-17T16:06:55.783Z,99875.74
2022-08-17T16:09:24.186Z,99879.23
2022-08-17T16:11:55.741Z,99884.75
2022-08-17T16:14:25.763Z,99895.64
2022-08-17T16:17:02.405Z,99895.86
2022-08-17T16:19:32.008Z,99896.67
2022-08-17T16:22:00.713Z,99895.50
2022-08-17T16:24:29.848Z,99896.77
2022-08-17T16:26:58.834Z,99899.83
2022-08-17T16:29:27.486Z,99902.58
2022-08-17T16:31:57.148Z,99901.21
2022-08-17T16:34:26.616Z,99898.44
2022-08-17T16:36:56.533Z,99896.25
2022-08-17T16:39:30.131Z,99898.48
2022-08-17T16:42:02.441Z,99900.42
2022-08-17T16:44:31.673Z,99899.12
2022-08-17T16:47:00.803Z,99903.39
2022-08-17T16:49:37.344Z,99906.05
2022-08-17T16:52:14.021Z,99910.30
2022-08-17T16:55:02.433Z,99913.02
2022-08-17T16:57:31.259Z,99914.64
2022-08-17T16:59:59.481Z,99921.42
2022-08-17T17:02:38.465Z,99926.48
2022-08-17T17:05:13.607Z,99922.77
2022-08-17T17:07:58.406Z,99927.20
2022-08-17T17:10:35.675Z,99928.48
2022-08-17T17:13:13.297Z,99929.13
2022-08-17T17:15:57.342Z,99930.48
2022-08-17T17:18:36.787Z,99932.98
2022-08-17T17:21:10.060Z,99930.60
2022-08-17T17:23:47.115Z,99926.84
2022-08-17T17:26:34.090Z,99927.62
2022-08-17T17:29:26.616Z,99928.45
2022-08-17T17:32:04.564Z,99929.77
2022-08-17T17:34:35.311Z,99936.71
2022-08-17T17:37:12.697Z,99939.98
2022-08-17T17:39:48.894Z,99942.36
2022-08-17T17:42:21.640Z,99946.95
2022-08-17T17:44:59.923Z,99959.36
2022-08-17T17:47:30.387Z,99962.58
2022-08-17T17:50:01.326Z,99965.90
2022-08-17T17:52:37.757Z,99970.71
2022-08-17T17:55:16.520Z,99973.27
2022-08-17T17:57:56.000Z,99970.59
2022-08-17T18:00:30.921Z,99969.47
2022-08-17T18:03:16.588Z,99969.73
2022-08-17T18:06:03.889Z,99975.98
2022-08-17T18:08:49.026Z,99979.52
2022-08-17T18:11:36.444Z,99975.01
2022-08-17T18:14:19.526Z,99980.96
2022-08-17T18:16:53.746Z,99987.41
2022-08-17T18:19:25.039Z,99991.67
2022-08-17T18:22:01.575Z,99995.24
2022-08-17T18:24:33.452Z,99995.92
2022-08-17T18:27:08.692Z,99989.44
2022-08-17T18:29:46.803Z,99991.81
2022-08-17T18:32:21.565Z,99987.94
2022-08-17T18:34:50.408Z,99987.08
2022-08-17T18:37:33.093Z,99987.48
2022-08-17T18:40:23.917Z,99987.41
2022-08-17T18:43:10.699Z,99992.02
2022-08-17T18:45:43.026Z,99995.08
2022-08-17T18:48:28.037Z,99993.23
2022-08-17T18:51:00.092Z,99999.92
2022-08-17T18:53:40.378Z,100001.83
2022-08-17T18:56:31.356Z,100003.67
2022-08-17T18:59:22.488Z,100003.92
2022-08-17T19:02:10.226Z,100006.10
2022-08-17T19:04:57.311Z,100008.16
2022-08-17T19:07:29.692Z,100012.41
2022-08-17T19:10:06.810Z,100007.49
2022-08-17T19:12:43.540Z,100011.61
2022-08-17T19:15:17.106Z,100012.06
2022-08-17T19:17:52.933Z,100013.56
2022-08-17T19:20:30.684Z,100018.17
2022-08-17T19:23:11.873Z,100014.75
2022-08-17T19:25:47.769Z,100017.81
2022-08-17T19:28:23.345Z,100017.98
2022-08-17T19:30:56.715Z,100020.35
2022-08-17T19:33:27.810Z,100019.90
2022-08-17T19:36:05.725Z,100023.94
2022-08-17T19:38:44.724Z,100026.58
2022-08-17T19:41:26.231Z,100028.66
2022-08-17T19:44:12.444Z,100034.17
2022-08-17T19:46:59.517Z,100033.29
2022-08-17T19:49:41.646Z,100033.27
2022-08-17T19:52:37.299Z,100031.23
2022-08-17T19:55:20.234Z,100033.30
2022-08-17T19:58:02.276Z,100037.42
2022-08-17T20:00:33.976Z,100036.70
2022-08-17T20:03:08.425Z,100040.98
2022-08-17T20:06:01.467Z,100042.02
2022-08-17T20:08:34.704Z,100037.48
2022-08-17T20:11:09.906Z,100039.39
2022-08-17T20:13:42.854Z,100035.52
2022-08-17T20:16:14.049Z,100035.21
2022-08-17T20:18:55.311Z,100038.11
2022-08-17T20:21:29.155Z,100039.33
2022-08-17T20:24:04.776Z,100040.55
2022-08-17T20:26:49.136Z,100038.61
2022-08-17T20:29:37.013Z,100041.96
2022-08-17T20:32:22.240Z,100048.58
2022-08-17T20:35:05.488Z,100051.13
2022-08-17T20:37:42.430Z,100056.15
2022-08-17T20:40:25.674Z,100053.52
2022-08-17T20:42:55.083Z,100055.42
2022-08-17T20:46:02.697Z,100057.02
2022-08-17T20:48:39.003Z,100051.30
2022-08-17T20:51:25.388Z,100053.29
2022-08-17T20:54:37.459Z,100054.17
2022-08-17T20:57:14.076Z,100060.66
2022-08-17T21:00:13.424Z,100067.14
2022-08-17T21:02:44.373Z,100073.84
2022-08-17T21:05:32.098Z,100078.44
2022-08-17T21:08:15.362Z,100078.43
2022-08-17T21:10:46.239Z,100081.38
2022-08-17T21:13:57.694Z,100077.48
2022-08-17T21:16:38.186Z,100082.07
2022-08-17T21:19:30.921Z,100080.26
2022-08-17T21:22:13.786Z,100084.41
2022-08-17T21:24:55.852Z,100084.91
2022-08-17T21:27:37.305Z,100085.67
2022-08-17T21:30:48.928Z,100090.89
2022-08-17T21:33:26.489Z,100093.99
2022-08-17T21:36:23.054Z,100096.40
2022-08-17T21:39:01.744Z,100096.35
2022-08-17T21:41:33.547Z,100093.33
2022-08-17T21:44:20.977Z,100095.77
2022-08-17T21:46:52.696Z,100094.14
2022-08-17T21:49:27.997Z,100088.10
2022-08-17T21:51:57.566Z,100085.36
2022-08-17T21:54:34.965Z,100085.86
2022-08-17T21:57:06.243Z,100086.41
2022-08-17T21:59:37.923Z,100087.71
2022-08-17T22:02:08.672Z,100084.52
2022-08-17T22:04:41.286Z,100082.64
2022-08-17T22:07:12.685Z,100079.52
2022-08-17T22:09:45.169Z,100079.08
2022-08-17T22:12:18.046Z,100078.16
2022-08-17T22:14:59.823Z,100077.71
2022-08-17T22:17:35.458Z,100077.52
2022-08-17T22:20:13.676Z,100075.35
2022-08-17T22:23:30.507Z,100074.02
2022-08-17T22:26:01.402Z,100068.73
2022-08-17T22:28:43.256Z,100069.52
2022-08-17T22:31:14.469Z,100072.20
2022-08-17T22:33:48.356Z,100070.58
2022-08-17T22:36:29.025Z,100060.27
2022-08-17T22:38:59.680Z,100056.21
2022-08-17T22:41:49.907Z,100055.79
2022-08-17T22:44:24.059Z,100058.00
2022-08-17T22:47:06.921Z,100054.11
2022-08-17T22:49:53.767Z,100046.30
2022-08-17T22:52:32.317Z,100048.36
2022-08-17T22:55:24.735Z,100049.88
2022-08-17T22:58:13.987Z,100053.09
2022-08-17T23:00:44.598Z,100048.30
2022-08-17T23:03:17.283Z,100045.29
2022-08-17T23:06:02.046Z,100047.10
2022-08-17T23:08:31.623Z,100047.34
2022-08-17T23:11:00.566Z,100040.70
2022-08-17T23:13:32.783Z,100042.73
2022-08-17T23:16:01.972Z,100038.59
2022-08-17T23:18:30.373Z,100031.35
2022-08-17T23:20:59.498Z,100024.02
2022-08-17T23:23:28.002Z,100024.42
2022-08-17T23:25:56.458Z,100030.89
2022-08-17T23:28:24.810Z,100032.47
2022-08-17T23:30:53.199Z,100024.53
2022-08-17T23:33:29.298Z,100024.52
2022-08-17T23:36:01.027Z,100023.19
2022-08-17T23:38:31.256Z,100025.30
2022-08-17T23:41:03.829Z,100024.22
2022-08-17T23:46:23.853Z,100019.36
2022-08-17T23:48:52.931Z,100020.77
2022-08-17T23:51:25.216Z,100020.73
2022-08-17T23:54:07.921Z,100015.98
2022-08-17T23:56:43.229Z,100010.98
2022-08-17T23:59:12.758Z,100005.95
